Bridgeport Valley, California Weather observations

Data are for 10 minute period ending at time listed.
 Day   Time   Solar   Ave.   Ave.  Ave.  Vector  Max.   Baro.   Total    
  of    of     Rad.   Air    Rel.  Wind   Wind   Wind  Press.  Precip.   
Year   Day            Temp.  Hum.  Speed  Dir.   Gust                    
2020   (PST)  Kw/m2    F      %     mph   deg.    mph    mb.     in.     
-------------------------------------------------------------------------
 268    0:00   -0.01   30.1    75    2.9   251     5.5   805.7    0.00 
 268    0:10   -0.01   30.2    76    4.0   234     6.6   805.6    0.00 
 268    0:20   -0.01   30.8    73    3.7   220     5.9   805.5    0.00 
 268    0:30   -0.01   34.1    59    3.0   263     5.7   805.6    0.00 
 268    0:40   -0.01   33.5    62    2.5   271     5.0   805.6    0.00 
 268    0:50   -0.01   30.9    72    1.8   118     4.4   805.6    0.00 
 268    1:00   -0.01   30.6    71    3.0   184     4.7   805.6    0.00 
 268    1:10   -0.01   30.5    69    2.2   260     5.9   805.6    0.00 
 268    1:20   -0.01   30.3    68    3.1   214     7.0   805.6    0.00 
 268    1:30   -0.01   28.6    74    3.2   251     5.1   805.5    0.00 
 268    1:40   -0.01   29.0    74    2.8   255     4.9   805.6    0.00 
 268    1:50   -0.01   28.2    75    3.5   218     5.7   805.5    0.00 
 268    2:00   -0.01   26.7    81    2.3   215     5.6   805.6    0.00 
 268    2:10   -0.01   27.2    78    2.4   299     6.2   805.6    0.00 
 268    2:20   -0.01   27.7    75    3.8   221     5.6   805.6    0.00 
 268    2:30   -0.01   29.4    69    2.6   244     4.5   805.6    0.00 
 268    2:40   -0.01   30.1    66    2.7   249     5.6   805.6    0.00 
 268    2:50   -0.01   30.9    61    1.9   168     3.9   805.5    0.00 
 268    3:00   -0.01   28.1    72    3.5   263     5.9   805.6    0.00 
 268    3:10   -0.01   27.5    73    1.4   252     3.9   805.5    0.00 
 268    3:20   -0.01   25.8    78    2.2   224     5.0   805.5    0.00 
 268    3:30   -0.01   24.8    76    1.5   298     7.0   805.5    0.00 
 268    3:40   -0.01   26.9    70    2.2   228     4.7   805.5    0.00 
 268    3:50   -0.01   25.8    76    3.1   222     5.0   805.6    0.00 
 268    4:00   -0.01   24.1    80    3.2   269     5.8   805.6    0.00 
 268    4:10   -0.01   23.9    80    1.5   251     3.5   805.6    0.00 
 268    4:20   -0.01   23.7    80    3.0   238     8.8   805.7    0.00 
 268    4:30   -0.01   22.8    84    2.9   230     5.2   805.6    0.00 
 268    4:40   -0.01   22.6    84    2.1   243     5.4   805.6    0.00 
 268    4:50   -0.01   22.2    85    1.1   173     2.5   805.6    0.00 
 268    5:00   -0.01   24.4    76    1.1   191     6.7   805.5    0.00 
 268    5:10   -0.01   23.1    82    1.6    46     5.8   805.5    0.00 
 268    5:20   -0.01   24.5    77    2.7   294     7.5   805.6    0.00 
 268    5:30   -0.01   24.5    75    2.6   317     4.4   805.7    0.00 
 268    5:40   -0.01   22.8    84    2.5   126     4.5   805.8    0.00 
 268    5:50   -0.01   21.9    85    2.1   263     4.5   805.9    0.00 
 268    6:00   0.00   21.8    83    4.4   234     7.8   806.0    0.00 
 268    6:10   0.02   26.2    72    3.8   259     5.2   805.9    0.00 
 268    6:20   0.08   28.8    63    2.1   260     4.3   806.0    0.00 
 268    6:30   0.10   30.2    69    2.9   229     4.7   806.0    0.00 
 268    6:40   0.14   31.1    73    0.7   172     4.9   805.9    0.00 
 268    6:50   0.18   32.9    74    0.9   105     3.0   805.8    0.00 
 268    7:00   0.21   34.6    72    1.4   105     2.9   805.8    0.00 
 268    7:10   0.24   36.1    70    1.2    68     2.3   805.8    0.00 
 268    7:20   0.27   38.9    58    1.3    88     3.0   805.8    0.00 
 268    7:30   0.31   42.2    47    0.4    58     1.8   805.8    0.00 
 268    7:40   0.34   44.8    39    1.2   261     3.5   805.9    0.00 
 268    7:50   0.37   47.7    37    0.9   248     3.2   805.9    0.00 
 268    8:00   0.41   49.4    36    2.3    33     4.2   806.0    0.00 
 268    8:10   0.44   50.2    36    2.7    41     4.6   806.1    0.00 
 268    8:20   0.47   51.2    34    2.7    25     5.2   806.2    0.00 
 268    8:30   0.50   53.5    31    1.3    51     2.9   806.2    0.00 
 268    8:40   0.53   56.3    30    1.1   113     2.6   806.1    0.00 
 268    8:50   0.56   58.0    28    1.3   111     2.7   806.1    0.00 
 268    9:00   0.59   59.5    25    1.1   172     3.1   806.0    0.00 
 268    9:10   0.62   61.2    26    1.4   154     2.9   805.9    0.00 
 268    9:20   0.65   63.2    26    1.0   146     3.0   805.8    0.00 
 268    9:30   0.67   65.5    24    1.0   138     4.2   805.6    0.00 
 268    9:40   0.70   67.3    21    1.3   194     3.5   805.4    0.00 
 268    9:50   0.72   68.5    21    1.1   267     3.2   805.3    0.00 
 268   10:00   0.74   69.6    19    1.6   302     3.9   805.0    0.00 
 268   10:10   0.76   71.4    18    1.6    42     3.3   804.8    0.00 
 268   10:20   0.78   73.0    16    1.5    12     3.3   804.5    0.00 
 268   10:30   0.80   74.7    15    2.3    78     5.2   804.3    0.00 
 268   10:40   0.81   75.5    15    3.3    14     6.5   804.2    0.00 
 268   10:50   0.83   75.6    15    3.0    67     5.5   804.1    0.00 
 268   11:00   0.84   76.4    17    5.5   229    14.1   803.9    0.00 
 268   11:10   0.85   76.9    16   10.5   231    17.3   803.9    0.00 
 268   11:20   0.86   77.3    17   12.8   233    18.3   803.8    0.00 
 268   11:30   0.86   77.4    16   11.0   235    18.1   803.7    0.00 
 268   11:40   0.87   77.6    16   13.0   239    17.8   803.7    0.00 
 268   11:50   0.87   77.7    16   12.6   240    20.6   803.6    0.00 
 268   12:00   0.86   77.7    14   11.4   252    17.4   803.6    0.00 
 268   12:10   0.85   77.7    15   12.2   250    19.8   803.6    0.00 
 268   12:20   0.84   77.6    14   14.8   255    20.0   803.6    0.00 
 268   12:30   0.84   77.4    15   14.0   257    20.4   803.6    0.00 
 268   12:40   0.82   77.7    16   13.5   248    21.2   803.5    0.00 
 268   12:50   0.81   77.7    15   14.7   248    19.9   803.4    0.00 
 268   13:00   0.80   77.3    15   13.2   256    19.6   803.3    0.00 
 268   13:10   0.79   77.1    15   16.0   249    21.7   803.2    0.00 
 268   13:20   0.78   77.3    16   14.5   248    19.0   803.2    0.00 
 268   13:30   0.75   77.3    16   14.7   247    21.0   803.2    0.00 
 268   13:40   0.74   77.2    16   14.2   251    19.8   803.1    0.00 
 268   13:50   0.74   77.3    16   15.0   252    22.6   803.1    0.00 
 268   14:00   0.71   77.3    17   14.9   245    20.1   803.1    0.00 
 268   14:10   0.69   77.2    16   13.1   244    17.0   803.0    0.00 
 268   14:20   0.67   77.0    17   14.0   241    18.6   803.1    0.00 
 268   14:30   0.64   76.9    17   12.9   242    18.0   803.0    0.00 
 268   14:40   0.61   76.8    16   12.3   249    17.0   803.0    0.00 
 268   14:50   0.58   76.5    17   13.4   244    18.3   803.0    0.00 
 268   15:00   0.55   76.1    18   14.1   237    19.4   802.9    0.00 
 268   15:10   0.52   75.8    19   12.9   236    18.9   802.9    0.00 
 268   15:20   0.49   75.3    18   13.8   231    18.5   802.8    0.00 
 268   15:30   0.46   75.1    19   13.2   231    18.9   802.6    0.00 
 268   15:40   0.43   74.9    20   11.5   230    17.0   802.6    0.00 
 268   15:50   0.39   74.4    20   12.7   241    16.8   802.6    0.00 
 268   16:00   0.36   74.1    20   11.3   240    15.4   802.5    0.00 
 268   16:10   0.33   73.5    21   11.6   243    15.2   802.5    0.00 
 268   16:20   0.30   72.8    23   10.6   244    14.6   802.5    0.00 
 268   16:30   0.27   72.4    22   10.9   246    16.0   802.5    0.00 
 268   16:40   0.24   71.7    23   10.9   246    15.0   802.5    0.00 
 268   16:50   0.20   70.5    24   11.9   245    15.8   802.4    0.00 
 268   17:00   0.17   69.2    25   11.6   246    16.0   802.2    0.00 
 268   17:10   0.14   68.5    25   11.2   256    15.7   802.3    0.00 
 268   17:20   0.10   67.6    25   11.6   254    15.9   802.4    0.00 
 268   17:30   0.03   65.4    27    9.8   262    13.0   802.6    0.00 
 268   17:40   0.01   64.0    28   10.5   259    16.0   802.7    0.00 
 268   17:50   0.00   65.3    25   13.6   256    18.1   802.7    0.00 
 268   18:00   -0.00   65.0    26   11.4   261    15.0   802.8    0.00 
 268   18:10   -0.01   63.4    28    8.9   253    12.2   802.8    0.00 
 268   18:20   -0.01   61.9    30    6.2   224    10.0   802.9    0.00 
 268   18:30   -0.01   58.1    35    5.1   202     7.3   803.1    0.00 
 268   18:40   -0.00   56.8    36    6.4   176     9.7   803.1    0.00 
 268   18:50   -0.00   57.7    35    5.8   199     8.3   803.1    0.00 
 268   19:00   -0.00   57.3    35    4.9   209     6.5   803.3    0.00 
 268   19:10   -0.00   58.0    34    5.4   200     8.5   803.4    0.00 
 268   19:20   -0.01   59.0    34    6.2   208     7.1   803.4    0.00 
 268   19:30   -0.01   54.7    41    6.5   192     8.8   803.3    0.00 
 268   19:40   -0.01   52.9    43    3.0   357     5.5   803.5    0.00 
 268   19:50   -0.01   53.4    42    2.1    73     4.1   803.6    0.00 
 268   20:00   -0.00   54.9    39    4.7   111     6.8   803.6    0.00 
 268   20:10   -0.00   53.0    43    6.3   116     8.0   803.6    0.00 
 268   20:20   -0.01   52.2    44    4.7    85     7.1   803.6    0.00 
 268   20:30   -0.01   50.0    48    3.6    45     5.5   803.6    0.00 
 268   20:40   -0.00   49.6    49    3.2    56     5.1   803.5    0.00 
 268   20:50   -0.00   51.5    43    3.4    35     4.6   803.6    0.00 
 268   21:00   -0.01   54.6    39    1.5    17     4.3   803.7    0.00 
 268   21:10   -0.01   51.0    44    4.4   340     7.5   803.7    0.00 
 268   21:20   -0.01   48.5    48    3.5   337     6.7   803.7    0.00 
 268   21:30   -0.00   47.5    49    3.8    38     6.4   803.8    0.00 
 268   21:40   -0.00   47.5    48    2.2   161     4.2   803.8    0.00 
 268   21:50   -0.00   47.7    48    2.4   105     4.1   803.8    0.00 
 268   22:00   -0.00   46.1    50    1.1    43     3.6   803.7    0.00 
 268   22:10   -0.00   44.9    52    3.5   235     5.3   803.7    0.00 
 268   22:20   -0.00   42.3    58    3.7   180     7.9   803.8    0.00 
 268   22:30   -0.00   47.3    47    1.0    65     3.7   803.8    0.00 
 268   22:40   -0.00   48.7    44    3.1    96     4.5   803.8    0.00 
 268   22:50   -0.01   46.0    51    2.7   172     4.6   803.9    0.00 
 268   23:00   -0.01   41.1    60    2.5   212     5.7   803.8    0.00 
 268   23:10   -0.00   39.1    62    1.8    35     4.2   803.7    0.00 
 268   23:20   -0.00   42.1    55    3.6   236     7.4   803.8    0.00 

Return to Bridgeport Valley graphs page.


Western Regional Climate Center,wrcc@dri.edu